createdAt,value
2022-10-12T00:01:57.585Z,10.40
2022-10-12T00:04:39.586Z,8.67
2022-10-12T00:07:20.547Z,7.83
2022-10-12T00:10:02.482Z,8.93
2022-10-12T00:12:43.036Z,8.47
2022-10-12T00:15:21.483Z,8.60
2022-10-12T00:18:01.488Z,10.27
2022-10-12T00:20:43.504Z,9.40
2022-10-12T00:23:22.544Z,9.97
2022-10-12T00:26:08.506Z,9.97
2022-10-12T00:28:46.381Z,8.63
2022-10-12T00:31:26.909Z,11.87
2022-10-12T00:34:08.673Z,9.33
2022-10-12T00:36:46.420Z,9.53
2022-10-12T00:39:23.091Z,10.10
2022-10-12T00:42:06.082Z,9.60
2022-10-12T00:44:47.599Z,8.70
2022-10-12T00:47:27.985Z,10.80
2022-10-12T00:50:10.577Z,9.90
2022-10-12T00:52:49.472Z,9.47
2022-10-12T00:55:28.511Z,8.90
2022-10-12T00:58:09.513Z,10.30
2022-10-12T01:00:46.092Z,9.10
2022-10-12T01:03:23.520Z,8.33
2022-10-12T01:06:00.536Z,9.00
2022-10-12T01:08:37.528Z,10.40
2022-10-12T01:11:15.556Z,9.63
2022-10-12T01:13:54.301Z,8.63
2022-10-12T01:16:34.185Z,10.63
2022-10-12T01:19:23.527Z,9.40
2022-10-12T01:22:06.750Z,8.40
2022-10-12T01:24:58.551Z,8.03
2022-10-12T01:27:47.489Z,8.87
2022-10-12T01:30:29.902Z,8.37
2022-10-12T01:33:31.965Z,9.37
2022-10-12T01:36:11.542Z,8.50
2022-10-12T01:38:55.276Z,8.67
2022-10-12T01:41:39.622Z,8.70
2022-10-12T01:44:22.668Z,8.93
2022-10-12T01:47:09.221Z,9.47
2022-10-12T01:49:48.453Z,8.10
2022-10-12T01:52:32.610Z,9.57
2022-10-12T01:55:37.680Z,10.53
2022-10-12T01:58:37.161Z,9.60
2022-10-12T02:01:24.310Z,8.70
2022-10-12T02:04:12.754Z,8.67
2022-10-12T02:06:53.285Z,10.00
2022-10-12T02:09:34.497Z,8.63
2022-10-12T02:12:13.368Z,9.20
2022-10-12T02:14:53.580Z,9.07
2022-10-12T02:17:31.640Z,8.80
2022-10-12T02:20:12.919Z,9.73
2022-10-12T02:22:53.688Z,9.33
2022-10-12T02:25:33.237Z,8.77
2022-10-12T02:28:16.614Z,8.83
2022-10-12T02:31:03.917Z,9.33
2022-10-12T02:33:46.511Z,8.63
2022-10-12T02:36:31.620Z,8.50
2022-10-12T02:39:11.294Z,9.27
2022-10-12T02:41:53.594Z,8.20
2022-10-12T02:44:33.643Z,8.37
2022-10-12T02:47:16.326Z,9.63
2022-10-12T02:49:54.659Z,8.10
2022-10-12T02:52:37.139Z,7.90
2022-10-12T02:55:14.925Z,8.60
2022-10-12T02:57:50.773Z,8.27
2022-10-12T03:00:31.639Z,8.10
2022-10-12T03:03:14.406Z,8.23
2022-10-12T03:05:54.077Z,8.20
2022-10-12T03:08:37.799Z,8.27
2022-10-12T03:11:19.503Z,8.77
2022-10-12T03:14:03.611Z,8.40
2022-10-12T03:16:46.392Z,8.03
2022-10-12T03:19:23.807Z,9.33
2022-10-12T03:22:05.411Z,7.43
2022-10-12T03:24:44.023Z,8.47
2022-10-12T03:27:23.624Z,7.70
2022-10-12T03:30:04.663Z,8.60
2022-10-12T03:32:43.628Z,7.67
2022-10-12T03:35:22.375Z,8.27
2022-10-12T03:38:05.630Z,6.80
2022-10-12T03:40:51.675Z,7.90
2022-10-12T03:43:32.964Z,7.90
2022-10-12T03:46:09.719Z,10.13
2022-10-12T03:48:51.315Z,8.07
2022-10-12T03:51:27.637Z,8.47
2022-10-12T03:54:10.766Z,8.30
2022-10-12T03:56:51.499Z,7.87
2022-10-12T03:59:33.693Z,8.60
2022-10-12T04:02:15.819Z,8.70
2022-10-12T04:05:00.882Z,8.20
2022-10-12T04:07:39.357Z,9.67
2022-10-12T04:10:18.645Z,8.50
2022-10-12T04:13:02.652Z,10.10
2022-10-12T04:15:42.650Z,9.63
2022-10-12T04:18:19.695Z,10.27
2022-10-12T04:20:59.663Z,8.70
2022-10-12T04:23:37.818Z,10.67
2022-10-12T04:26:20.824Z,9.73
2022-10-12T04:29:01.764Z,9.70
2022-10-12T04:31:42.192Z,8.80
2022-10-12T04:34:17.669Z,9.40
2022-10-12T04:36:52.771Z,10.20
2022-10-12T04:39:25.010Z,9.70
2022-10-12T04:41:57.583Z,8.70
2022-10-12T04:44:32.367Z,8.70
2022-10-12T04:47:04.806Z,10.57
2022-10-12T04:49:35.921Z,8.50
2022-10-12T04:52:07.625Z,9.10
2022-10-12T04:54:41.963Z,10.03
2022-10-12T04:57:15.418Z,10.07
2022-10-12T04:59:49.928Z,9.50
2022-10-12T05:02:23.161Z,10.13
2022-10-12T05:04:54.031Z,9.70
2022-10-12T05:07:25.590Z,10.90
2022-10-12T05:09:56.222Z,10.67
2022-10-12T05:12:27.661Z,10.10
2022-10-12T05:15:00.619Z,9.37
2022-10-12T05:17:32.046Z,10.20
2022-10-12T05:20:03.025Z,9.57
2022-10-12T05:22:34.768Z,8.97
2022-10-12T05:25:05.983Z,9.80
2022-10-12T05:27:37.909Z,10.77
2022-10-12T05:30:11.994Z,11.40
2022-10-12T05:32:44.723Z,11.30
2022-10-12T05:35:14.847Z,10.03
2022-10-12T05:37:45.603Z,10.90
2022-10-12T05:40:17.578Z,10.30
2022-10-12T05:42:47.964Z,10.50
2022-10-12T05:45:21.083Z,9.83
2022-10-12T05:47:52.371Z,9.30
2022-10-12T05:50:22.796Z,8.50
2022-10-12T05:52:53.266Z,9.20
2022-10-12T05:55:23.335Z,9.03
2022-10-12T05:57:55.931Z,12.10
2022-10-12T06:00:30.174Z,11.80
2022-10-12T06:03:02.409Z,9.93
2022-10-12T06:05:34.211Z,11.03
2022-10-12T06:08:07.756Z,11.03
2022-10-12T06:10:38.940Z,10.23
2022-10-12T06:13:10.114Z,12.90
2022-10-12T06:15:42.116Z,12.73
2022-10-12T06:18:12.107Z,14.53
2022-10-12T06:20:43.373Z,14.07
2022-10-12T06:23:13.902Z,14.70
2022-10-12T06:25:45.787Z,12.93
2022-10-12T06:28:16.328Z,10.70
2022-10-12T06:30:50.097Z,11.00
2022-10-12T06:33:21.351Z,10.70
2022-10-12T06:35:51.836Z,9.57
2022-10-12T06:38:23.214Z,8.10
2022-10-12T06:40:53.835Z,8.00
2022-10-12T06:43:25.262Z,7.40
2022-10-12T06:45:57.568Z,7.30
2022-10-12T06:48:27.687Z,7.30
2022-10-12T06:50:57.269Z,6.80
2022-10-12T06:53:31.478Z,7.10
2022-10-12T06:56:02.959Z,6.07
2022-10-12T06:58:35.779Z,9.13
2022-10-12T07:01:12.515Z,8.63
2022-10-12T07:03:44.936Z,8.93
2022-10-12T07:06:19.041Z,8.33
2022-10-12T07:08:52.007Z,8.47
2022-10-12T07:11:23.501Z,8.07
2022-10-12T07:13:55.178Z,7.20
2022-10-12T07:16:30.081Z,8.27
2022-10-12T07:19:02.577Z,8.40
2022-10-12T07:21:35.369Z,6.10
2022-10-12T07:24:07.101Z,6.77
2022-10-12T07:26:37.906Z,6.47
2022-10-12T07:29:10.056Z,6.50
2022-10-12T07:31:48.509Z,6.17
2022-10-12T07:34:25.709Z,6.40
2022-10-12T07:37:05.573Z,6.23
2022-10-12T07:39:38.639Z,7.07
2022-10-12T07:42:09.461Z,7.03
2022-10-12T07:44:40.997Z,6.80
2022-10-12T07:47:13.569Z,5.90
2022-10-12T07:49:45.672Z,6.33
2022-10-12T07:52:16.860Z,6.17
2022-10-12T07:54:49.217Z,6.30
2022-10-12T07:57:20.915Z,6.53
2022-10-12T07:59:57.502Z,6.00
2022-10-12T08:02:32.441Z,6.60
2022-10-12T08:05:04.545Z,5.97
2022-10-12T08:07:36.738Z,5.87
2022-10-12T08:10:09.811Z,5.63
2022-10-12T08:12:40.461Z,3.93
2022-10-12T08:15:13.047Z,5.83
2022-10-12T08:17:50.078Z,4.13
2022-10-12T08:20:22.635Z,4.67
2022-10-12T08:22:55.460Z,4.50
2022-10-12T08:25:27.350Z,4.53
2022-10-12T08:27:58.432Z,4.53
2022-10-12T08:30:28.899Z,4.53
2022-10-12T08:33:00.590Z,3.73
2022-10-12T08:35:32.884Z,3.90
2022-10-12T08:38:03.370Z,3.40
2022-10-12T08:40:37.782Z,3.00
2022-10-12T08:43:12.606Z,4.10
2022-10-12T08:45:55.628Z,4.03
2022-10-12T08:48:31.988Z,3.70
2022-10-12T08:51:10.634Z,3.43
2022-10-12T08:53:51.405Z,3.90
2022-10-12T08:56:23.877Z,4.00
2022-10-12T08:58:58.077Z,3.70
2022-10-12T09:01:38.829Z,3.87
2022-10-12T09:04:32.140Z,3.50
2022-10-12T09:07:11.019Z,3.80
2022-10-12T09:09:56.235Z,4.30
2022-10-12T09:12:38.155Z,4.20
2022-10-12T09:15:16.023Z,3.77
2022-10-12T09:17:51.364Z,3.23
2022-10-12T09:20:26.943Z,3.27
2022-10-12T09:23:00.606Z,4.60
2022-10-12T09:25:32.587Z,3.50
2022-10-12T09:28:18.624Z,4.20
2022-10-12T09:31:02.813Z,3.83
2022-10-12T09:33:38.433Z,3.37
2022-10-12T09:36:14.046Z,3.90
2022-10-12T09:38:47.800Z,3.40
2022-10-12T09:41:25.107Z,4.33
2022-10-12T09:44:02.542Z,3.53
2022-10-12T09:46:42.297Z,3.53
2022-10-12T09:49:15.097Z,4.03
2022-10-12T09:51:49.723Z,4.17
2022-10-12T09:54:21.539Z,3.33
2022-10-12T09:56:56.261Z,3.80
2022-10-12T09:59:34.552Z,4.23
2022-10-12T10:02:18.528Z,3.40
2022-10-12T10:04:59.866Z,4.53
2022-10-12T10:07:36.109Z,3.67
2022-10-12T10:10:17.234Z,3.70
2022-10-12T10:12:55.016Z,3.70
2022-10-12T10:15:30.892Z,4.30
2022-10-12T10:18:03.575Z,4.00
2022-10-12T10:20:36.624Z,4.40
2022-10-12T10:23:08.365Z,4.40
2022-10-12T10:25:38.467Z,4.60
2022-10-12T10:28:26.538Z,4.43
2022-10-12T10:31:04.453Z,3.80
2022-10-12T10:33:36.722Z,3.80
2022-10-12T10:36:11.807Z,3.60
2022-10-12T10:38:57.608Z,3.93
2022-10-12T10:41:33.395Z,3.37
2022-10-12T10:44:04.708Z,3.13
2022-10-12T10:46:37.728Z,3.20
2022-10-12T10:49:12.576Z,4.10
2022-10-12T10:51:46.276Z,3.53
2022-10-12T10:54:27.342Z,4.43
2022-10-12T10:57:00.621Z,3.77
2022-10-12T10:59:43.199Z,4.60
2022-10-12T11:02:28.864Z,3.30
2022-10-12T11:05:06.715Z,3.80
2022-10-12T11:07:41.811Z,3.10
2022-10-12T11:10:20.591Z,4.20
2022-10-12T11:12:56.130Z,3.83
2022-10-12T11:15:29.040Z,3.50
2022-10-12T11:18:03.552Z,3.50
2022-10-12T11:20:41.024Z,2.73
2022-10-12T11:23:20.998Z,3.33
2022-10-12T11:26:01.947Z,3.37
2022-10-12T11:28:33.964Z,3.37
2022-10-12T11:31:06.099Z,4.00
2022-10-12T11:33:40.063Z,3.30
2022-10-12T11:36:15.115Z,3.20
2022-10-12T11:38:48.752Z,3.50
2022-10-12T11:41:35.295Z,3.70
2022-10-12T11:44:09.400Z,6.10
2022-10-12T11:46:40.873Z,3.87
2022-10-12T11:49:17.240Z,3.70
2022-10-12T11:51:49.977Z,3.37
2022-10-12T11:54:29.004Z,3.03
2022-10-12T11:57:06.754Z,3.37
2022-10-12T11:59:40.673Z,3.30
2022-10-12T12:02:21.189Z,3.77
2022-10-12T12:04:53.184Z,3.50
2022-10-12T12:07:48.819Z,3.20
2022-10-12T12:11:01.100Z,3.10
2022-10-12T12:13:33.509Z,3.07
2022-10-12T12:16:34.508Z,3.80
2022-10-12T12:19:20.314Z,3.50
2022-10-12T12:22:18.968Z,3.70
2022-10-12T12:25:22.494Z,3.43
2022-10-12T12:27:54.700Z,3.17
2022-10-12T12:31:05.231Z,3.70
2022-10-12T12:33:39.284Z,4.00
2022-10-12T12:36:11.554Z,3.23
2022-10-12T12:38:43.465Z,4.57
2022-10-12T12:41:17.006Z,4.30
2022-10-12T12:44:04.828Z,4.80
2022-10-12T12:50:06.413Z,3.10
2022-10-12T12:52:42.117Z,3.77
2022-10-12T12:55:42.839Z,3.70
2022-10-12T12:58:27.579Z,4.03
2022-10-12T13:01:12.942Z,4.20
2022-10-12T13:04:14.330Z,3.43
2022-10-12T13:07:16.248Z,4.00
2022-10-12T13:10:17.304Z,3.20
2022-10-12T13:13:26.542Z,4.17
2022-10-12T13:16:06.569Z,3.90
2022-10-12T13:18:59.287Z,3.87
2022-10-12T13:21:32.267Z,3.70
2022-10-12T13:24:12.100Z,4.70
2022-10-12T13:26:44.491Z,3.77
2022-10-12T13:29:21.742Z,4.00
2022-10-12T13:31:56.010Z,4.40
2022-10-12T13:34:29.356Z,3.03
2022-10-12T13:37:02.150Z,3.83
2022-10-12T13:39:44.535Z,3.73
2022-10-12T13:42:19.432Z,3.60
2022-10-12T13:44:51.156Z,4.00
2022-10-12T13:47:27.538Z,4.07
2022-10-12T13:49:59.640Z,3.37
2022-10-12T13:52:33.252Z,3.63
2022-10-12T13:55:17.896Z,3.90
2022-10-12T13:57:51.462Z,3.90
2022-10-12T14:00:23.308Z,4.13
2022-10-12T14:02:59.567Z,5.13
2022-10-12T14:05:32.482Z,4.27
2022-10-12T14:08:07.755Z,4.20
2022-10-12T14:10:39.891Z,4.70
2022-10-12T14:13:12.448Z,4.50
2022-10-12T14:15:44.764Z,4.20
2022-10-12T14:18:38.093Z,4.57
2022-10-12T14:21:18.072Z,4.60
2022-10-12T14:23:52.491Z,4.97
2022-10-12T14:26:32.133Z,4.50
2022-10-12T14:29:02.497Z,4.20
2022-10-12T14:31:54.303Z,4.40
2022-10-12T14:34:40.158Z,5.00
2022-10-12T14:37:26.979Z,4.27
2022-10-12T14:40:02.243Z,4.13
2022-10-12T14:42:38.439Z,4.87
2022-10-12T14:45:22.847Z,3.63
2022-10-12T14:47:54.089Z,3.50
2022-10-12T14:50:24.699Z,4.03
2022-10-12T14:52:55.082Z,3.73
2022-10-12T14:55:27.383Z,4.57
2022-10-12T14:58:00.868Z,4.70
2022-10-12T15:00:33.199Z,3.70
2022-10-12T15:03:05.075Z,3.50
2022-10-12T15:05:39.259Z,4.20
2022-10-12T15:08:10.541Z,4.10
2022-10-12T15:10:43.085Z,3.67
2022-10-12T15:13:17.396Z,3.83
2022-10-12T15:15:49.303Z,3.77
2022-10-12T15:18:21.406Z,3.70
2022-10-12T15:20:52.818Z,4.40
2022-10-12T15:23:24.115Z,3.37
2022-10-12T15:25:56.492Z,3.60
2022-10-12T15:28:31.349Z,4.43
2022-10-12T15:31:16.995Z,4.00
2022-10-12T15:33:51.372Z,3.37
2022-10-12T15:36:23.631Z,4.30
2022-10-12T15:38:55.959Z,4.10
2022-10-12T15:41:29.129Z,4.30
2022-10-12T15:44:03.437Z,4.97
2022-10-12T15:46:36.182Z,3.53
2022-10-12T15:49:08.823Z,4.20
2022-10-12T15:51:42.024Z,4.00
2022-10-12T15:54:12.670Z,3.30
2022-10-12T15:56:45.241Z,3.67
2022-10-12T15:59:16.791Z,3.93
2022-10-12T16:01:49.323Z,3.87
2022-10-12T16:04:23.352Z,3.50
2022-10-12T16:06:55.325Z,3.93
2022-10-12T16:09:27.387Z,3.83
2022-10-12T16:11:57.657Z,3.50
2022-10-12T16:14:29.688Z,3.30
2022-10-12T16:17:06.825Z,3.50
2022-10-12T16:19:37.170Z,3.47
2022-10-12T16:22:08.388Z,3.50
2022-10-12T16:24:43.038Z,3.87
2022-10-12T16:27:15.771Z,3.30
2022-10-12T16:29:52.765Z,3.53
2022-10-12T16:32:27.137Z,3.70
2022-10-12T16:35:01.084Z,2.93
2022-10-12T16:37:38.146Z,3.70
2022-10-12T16:40:14.496Z,3.80
2022-10-12T16:42:50.825Z,4.40
2022-10-12T16:45:30.286Z,5.23
2022-10-12T16:48:03.606Z,4.53
2022-10-12T16:50:40.465Z,5.40
2022-10-12T16:53:14.540Z,4.40
2022-10-12T16:55:47.189Z,3.77
2022-10-12T16:58:24.583Z,4.30
2022-10-12T17:01:12.791Z,3.87
2022-10-12T17:03:55.660Z,4.87
2022-10-12T17:06:35.098Z,4.30
2022-10-12T17:09:13.914Z,4.00
2022-10-12T17:11:53.273Z,3.70
2022-10-12T17:14:34.041Z,3.63
2022-10-12T17:17:17.386Z,4.17
2022-10-12T17:19:55.812Z,3.20
2022-10-12T17:22:35.100Z,3.30
2022-10-12T17:25:14.056Z,4.50
2022-10-12T17:27:52.155Z,3.33
2022-10-12T17:30:29.539Z,4.50
2022-10-12T17:33:09.903Z,4.03
2022-10-12T17:35:50.241Z,3.77
2022-10-12T17:38:28.362Z,4.03
2022-10-12T17:41:09.213Z,4.37
2022-10-12T17:43:48.737Z,4.17
2022-10-12T17:46:27.917Z,4.20
2022-10-12T17:49:09.589Z,3.73
2022-10-12T17:51:49.215Z,3.40
2022-10-12T17:54:25.745Z,4.00
2022-10-12T17:57:04.067Z,5.10
2022-10-12T17:59:44.283Z,4.07
2022-10-12T18:02:25.224Z,4.80
2022-10-12T18:05:05.137Z,5.07
2022-10-12T18:07:43.710Z,5.67
2022-10-12T18:10:26.118Z,6.60
2022-10-12T18:13:08.226Z,6.37
2022-10-12T18:15:48.312Z,4.27
2022-10-12T18:18:29.827Z,4.57
2022-10-12T18:21:14.407Z,5.37
2022-10-12T18:23:50.442Z,4.57
2022-10-12T18:26:29.738Z,4.67
2022-10-12T18:29:13.045Z,5.50
2022-10-12T18:31:51.293Z,4.37
2022-10-12T18:34:36.332Z,4.93
2022-10-12T18:37:19.252Z,4.40
2022-10-12T18:39:58.630Z,5.10
2022-10-12T18:42:36.295Z,4.80
2022-10-12T18:45:13.811Z,7.27
2022-10-12T18:47:50.124Z,5.80
2022-10-12T18:50:27.301Z,6.43
2022-10-12T18:53:07.837Z,5.10
2022-10-12T18:55:47.217Z,4.60
2022-10-12T18:58:25.394Z,4.93
2022-10-12T19:01:06.414Z,5.50
2022-10-12T19:03:47.667Z,6.40
2022-10-12T19:06:30.670Z,5.90
2022-10-12T19:09:10.100Z,5.47
2022-10-12T19:11:49.369Z,5.57
2022-10-12T19:14:27.799Z,5.50
2022-10-12T19:17:08.281Z,4.07
2022-10-12T19:19:48.472Z,4.80
2022-10-12T19:22:23.904Z,5.20
2022-10-12T19:25:04.124Z,4.83
2022-10-12T19:27:44.563Z,5.83
2022-10-12T19:30:23.429Z,5.43
2022-10-12T19:33:01.205Z,4.73
2022-10-12T19:35:39.289Z,4.43
2022-10-12T19:38:17.927Z,4.97
2022-10-12T19:41:02.026Z,4.90
2022-10-12T19:43:42.907Z,5.10
2022-10-12T19:46:18.292Z,4.60
2022-10-12T19:48:59.484Z,4.87
2022-10-12T19:51:37.842Z,5.47
2022-10-12T19:54:14.996Z,4.40
2022-10-12T19:56:55.300Z,6.27
2022-10-12T19:59:40.301Z,4.97
2022-10-12T20:02:17.018Z,5.47
2022-10-12T20:04:58.322Z,4.90
2022-10-12T20:07:38.312Z,6.10
2022-10-12T20:10:16.120Z,7.77
2022-10-12T20:12:59.319Z,6.80
2022-10-12T20:15:42.999Z,5.73
2022-10-12T20:18:21.063Z,6.10
2022-10-12T20:20:58.114Z,4.70
2022-10-12T20:23:34.163Z,4.63
2022-10-12T20:26:17.029Z,4.53
2022-10-12T20:28:57.321Z,4.00
2022-10-12T20:31:37.326Z,5.40
2022-10-12T20:34:16.331Z,4.70
2022-10-12T20:37:23.431Z,4.80
2022-10-12T20:40:06.479Z,5.00
2022-10-12T20:42:47.450Z,4.90
2022-10-12T20:45:26.177Z,5.53
2022-10-12T20:48:05.182Z,5.50
2022-10-12T20:50:45.039Z,5.27
2022-10-12T20:53:23.334Z,5.00
2022-10-12T20:56:08.351Z,5.07
2022-10-12T21:02:50.872Z,5.53
2022-10-12T21:05:30.186Z,5.50
2022-10-12T21:08:10.129Z,5.20
2022-10-12T21:10:53.361Z,4.20
2022-10-12T21:13:33.856Z,5.43
2022-10-12T21:16:12.571Z,5.97
2022-10-12T21:18:53.582Z,5.23
2022-10-12T21:21:33.469Z,5.13
2022-10-12T21:24:12.721Z,5.70
2022-10-12T21:26:51.509Z,5.13
2022-10-12T21:29:30.886Z,5.10
2022-10-12T21:32:10.364Z,5.20
2022-10-12T21:34:54.016Z,6.30
2022-10-12T21:37:33.363Z,5.50
2022-10-12T21:40:15.114Z,5.37
2022-10-12T21:42:55.371Z,6.47
2022-10-12T21:45:36.472Z,5.13
2022-10-12T21:48:14.934Z,5.40
2022-10-12T21:51:04.286Z,6.40
2022-10-12T21:53:47.374Z,6.30
2022-10-12T21:56:28.457Z,5.47
2022-10-12T21:59:09.974Z,5.77
2022-10-12T22:01:53.385Z,6.80
2022-10-12T22:04:30.442Z,5.33
2022-10-12T22:07:12.881Z,5.90
2022-10-12T22:09:54.945Z,5.43
2022-10-12T22:12:36.121Z,4.70
2022-10-12T22:15:16.976Z,7.13
2022-10-12T22:17:57.977Z,6.13
2022-10-12T22:20:37.179Z,5.50
2022-10-12T22:23:20.089Z,5.60
2022-10-12T22:26:00.204Z,5.10
2022-10-12T22:28:39.295Z,5.70
2022-10-12T22:31:16.464Z,6.00
2022-10-12T22:33:55.840Z,5.90
2022-10-12T22:36:35.407Z,5.77
2022-10-12T22:39:20.402Z,5.67
2022-10-12T22:42:03.630Z,5.70
2022-10-12T22:44:46.672Z,5.17
2022-10-12T22:47:24.409Z,6.23
2022-10-12T22:50:03.744Z,5.47
2022-10-12T22:52:43.429Z,5.20
2022-10-12T22:55:26.414Z,6.07
2022-10-12T22:58:05.164Z,5.57
2022-10-12T23:00:40.933Z,6.10
2022-10-12T23:03:19.495Z,6.20
2022-10-12T23:06:01.049Z,6.53
2022-10-12T23:08:42.756Z,6.43
2022-10-12T23:11:26.545Z,6.20
2022-10-12T23:14:04.853Z,6.67
2022-10-12T23:16:44.094Z,6.17
2022-10-12T23:19:22.463Z,6.13
2022-10-12T23:22:04.793Z,5.00
2022-10-12T23:24:43.475Z,6.23
2022-10-12T23:27:23.461Z,6.07
2022-10-12T23:30:02.944Z,5.90
2022-10-12T23:32:43.436Z,5.90
2022-10-12T23:35:24.438Z,6.97
2022-10-12T23:38:04.017Z,6.10
2022-10-12T23:40:42.443Z,7.37
2022-10-12T23:43:22.444Z,6.50
2022-10-12T23:46:02.592Z,7.00
2022-10-12T23:48:41.674Z,7.00
2022-10-12T23:51:22.120Z,8.47
2022-10-12T23:54:03.449Z,7.70
2022-10-12T23:56:42.561Z,7.60
2022-10-12T23:59:24.455Z,7.90
